createdAt,value
2019-05-12T00:00:28.650Z,12.05
2019-05-12T00:05:32.611Z,12.03
2019-05-12T00:10:38.734Z,12.02
2019-05-12T00:15:43.562Z,11.97
2019-05-12T00:20:48.118Z,11.76
2019-05-12T00:25:52.597Z,11.45
2019-05-12T00:30:58.013Z,11.39
2019-05-12T00:36:02.802Z,11.32
2019-05-12T00:41:08.801Z,11.18
2019-05-12T00:46:13.536Z,11.26
2019-05-12T00:51:18.220Z,11.22
2019-05-12T00:56:23.917Z,11.11
2019-05-12T01:01:28.757Z,11.21
2019-05-12T01:06:33.300Z,11.23
2019-05-12T01:11:38.071Z,11.22
2019-05-12T01:16:42.619Z,11.24
2019-05-12T01:21:48.162Z,11.15
2019-05-12T01:26:52.830Z,11.07
2019-05-12T01:31:59.683Z,11.01
2019-05-12T01:37:22.021Z,10.99
2019-05-12T01:42:28.728Z,10.90
2019-05-12T01:47:34.419Z,10.94
2019-05-12T01:52:39.070Z,10.89
2019-05-12T01:57:44.757Z,10.92
2019-05-12T02:02:49.396Z,10.92
2019-05-12T02:07:58.104Z,10.92
2019-05-12T02:13:01.822Z,10.89
2019-05-12T02:18:08.799Z,10.82
2019-05-12T02:23:12.717Z,10.71
2019-05-12T02:28:18.017Z,10.55
2019-05-12T02:33:24.434Z,10.54
2019-05-12T02:38:28.997Z,10.47
2019-05-12T02:43:34.785Z,10.43
2019-05-12T02:48:39.574Z,10.40
2019-05-12T02:53:46.914Z,10.43
2019-05-12T02:58:50.724Z,10.38
2019-05-12T03:03:58.708Z,10.33
2019-05-12T03:09:06.594Z,10.30
2019-05-12T03:14:11.261Z,10.25
2019-05-12T03:19:15.811Z,10.25
2019-05-12T03:24:20.366Z,10.25
2019-05-12T03:29:25.284Z,10.27
2019-05-12T03:34:30.166Z,10.40
2019-05-12T03:39:34.888Z,10.46
2019-05-12T03:44:39.422Z,10.74
2019-05-12T03:49:45.506Z,11.34
2019-05-12T03:54:50.096Z,12.38
2019-05-12T03:59:54.726Z,13.32
2019-05-12T04:04:59.404Z,13.78
2019-05-12T04:10:05.684Z,14.31
2019-05-12T04:15:11.234Z,13.99
2019-05-12T04:20:15.783Z,14.85
2019-05-12T04:25:20.284Z,15.26
2019-05-12T04:30:25.262Z,15.86
2019-05-12T04:35:29.834Z,14.96
2019-05-12T04:40:36.056Z,15.17
2019-05-12T04:45:41.158Z,16.87
2019-05-12T04:50:45.637Z,18.05
2019-05-12T04:56:09.707Z,19.14
2019-05-12T05:00:59.512Z,20.46
2019-05-12T05:06:05.304Z,20.26
2019-05-12T05:11:09.869Z,19.77
2019-05-12T05:16:14.626Z,19.12
2019-05-12T05:21:19.175Z,17.91
2019-05-12T05:26:27.902Z,18.09
2019-05-12T05:31:29.839Z,18.94
2019-05-12T05:36:36.118Z,19.83
2019-05-12T05:41:46.430Z,20.75
2019-05-12T05:46:50.153Z,21.40
2019-05-12T05:51:57.594Z,23.29
2019-05-12T05:57:02.996Z,23.59
2019-05-12T06:02:07.693Z,25.22
2019-05-12T06:07:14.397Z,24.67
2019-05-12T06:12:18.681Z,23.96
2019-05-12T06:17:23.633Z,24.04
2019-05-12T06:22:28.272Z,25.03
2019-05-12T06:27:35.726Z,24.95
2019-05-12T06:32:50.496Z,22.45
2019-05-12T06:37:59.969Z,22.52
2019-05-12T06:42:59.534Z,22.98
2019-05-12T06:48:04.183Z,22.35
2019-05-12T06:53:08.688Z,21.71
2019-05-12T06:58:13.984Z,23.50
2019-05-12T07:08:30.474Z,23.14
2019-05-12T07:13:31.095Z,24.20
2019-05-12T07:18:37.056Z,24.01
2019-05-12T07:23:44.350Z,24.38
2019-05-12T07:28:48.465Z,23.33
2019-05-12T07:33:54.243Z,23.53
2019-05-12T07:39:04.163Z,23.48
2019-05-12T07:44:06.603Z,23.22
2019-05-12T07:49:11.103Z,24.04
2019-05-12T07:54:15.799Z,25.07
2019-05-12T07:59:20.739Z,24.86
2019-05-12T08:04:25.310Z,24.55
2019-05-12T08:09:32.401Z,24.14
2019-05-12T08:14:36.109Z,24.36
2019-05-12T08:19:40.785Z,24.68
2019-05-12T08:24:48.176Z,26.14
2019-05-12T08:30:01.174Z,26.39
2019-05-12T08:34:59.034Z,24.56
2019-05-12T08:40:07.710Z,23.61
2019-05-12T08:45:15.162Z,23.85
2019-05-12T08:50:23.200Z,24.68
2019-05-12T08:55:31.564Z,26.23
2019-05-12T09:00:39.429Z,26.68
2019-05-12T09:05:45.524Z,27.34
2019-05-12T09:10:52.191Z,25.79
2019-05-12T09:15:56.495Z,26.23
2019-05-12T09:21:03.586Z,25.40
2019-05-12T09:26:07.277Z,24.80
2019-05-12T09:31:13.988Z,24.31
2019-05-12T09:36:21.762Z,24.40
2019-05-12T09:41:26.973Z,24.93
2019-05-12T09:46:34.341Z,25.30
2019-05-12T09:51:42.705Z,25.29
2019-05-12T09:56:44.337Z,23.99
2019-05-12T10:01:48.962Z,24.80
2019-05-12T10:06:53.584Z,25.31
2019-05-12T10:12:00.727Z,25.65
2019-05-12T10:17:05.557Z,25.07
2019-05-12T10:22:11.410Z,25.53
2019-05-12T10:27:21.112Z,25.60
2019-05-12T10:32:24.021Z,24.65
2019-05-12T10:37:29.524Z,25.01
2019-05-12T10:42:34.182Z,24.58
2019-05-12T10:47:38.732Z,24.10
2019-05-12T10:52:44.770Z,24.58
2019-05-12T10:57:52.989Z,24.44
2019-05-12T11:03:01.450Z,24.98
2019-05-12T11:08:11.118Z,25.11
2019-05-12T11:13:10.125Z,24.84
2019-05-12T11:18:14.909Z,24.68
2019-05-12T11:23:19.431Z,25.79
2019-05-12T11:28:24.418Z,26.07
2019-05-12T11:33:30.192Z,26.72
2019-05-12T11:38:34.742Z,25.67
2019-05-12T11:43:39.248Z,25.80
2019-05-12T11:48:46.411Z,24.47
2019-05-12T11:53:50.119Z,24.46
2019-05-12T11:58:54.674Z,24.01
2019-05-12T12:03:59.257Z,23.95
2019-05-12T12:09:09.309Z,23.89
2019-05-12T12:14:14.261Z,23.45
2019-05-12T12:19:18.480Z,23.15
2019-05-12T12:24:30.018Z,23.11
2019-05-12T12:29:29.249Z,23.17
2019-05-12T12:34:35.306Z,23.51
2019-05-12T12:39:39.847Z,23.47
2019-05-12T12:44:45.201Z,23.18
2019-05-12T12:49:49.685Z,22.92
2019-05-12T12:54:59.236Z,22.88
2019-05-12T13:00:03.664Z,22.91
2019-05-12T13:05:07.901Z,22.75
2019-05-12T13:10:14.294Z,22.84
2019-05-12T13:15:21.069Z,22.81
2019-05-12T13:20:26.314Z,22.87
2019-05-12T13:25:30.954Z,22.78
2019-05-12T13:30:45.843Z,22.56
2019-05-12T13:35:43.502Z,22.51
2019-05-12T13:40:48.241Z,22.25
2019-05-12T13:45:53.442Z,22.20
2019-05-12T13:51:07.519Z,22.20
2019-05-12T13:56:04.967Z,22.58
2019-05-12T14:01:17.020Z,22.96
2019-05-12T14:06:15.925Z,22.71
2019-05-12T14:11:20.435Z,22.53
2019-05-12T14:16:24.981Z,22.08
2019-05-12T14:21:33.149Z,22.38
2019-05-12T14:26:39.524Z,22.60
2019-05-12T14:31:45.249Z,22.60
2019-05-12T14:36:48.530Z,22.38
2019-05-12T14:41:54.628Z,22.14
2019-05-12T14:46:59.227Z,21.75
2019-05-12T14:52:03.924Z,21.43
2019-05-12T14:57:08.957Z,21.34
2019-05-12T15:02:13.689Z,21.41
2019-05-12T15:07:18.290Z,21.21
2019-05-12T15:12:24.285Z,21.07
2019-05-12T15:17:29.011Z,20.95
2019-05-12T15:22:33.591Z,21.01
2019-05-12T15:27:45.001Z,20.91
2019-05-12T15:32:44.510Z,20.96
2019-05-12T15:37:51.941Z,20.91
2019-05-12T15:43:00.273Z,20.82
2019-05-12T15:48:03.876Z,20.86
2019-05-12T15:53:07.831Z,20.67
2019-05-12T15:58:14.098Z,20.54
2019-05-12T16:03:18.988Z,20.55
2019-05-12T16:08:24.485Z,20.42
2019-05-12T16:13:29.212Z,20.38
2019-05-12T16:18:40.523Z,20.24
2019-05-12T16:23:44.735Z,20.29
2019-05-12T16:28:54.003Z,20.29
2019-05-12T16:34:01.215Z,20.22
2019-05-12T16:39:04.256Z,20.12
2019-05-12T16:44:17.295Z,20.07
2019-05-12T16:49:25.129Z,20.05
2019-05-12T16:54:25.871Z,20.00
2019-05-12T16:59:30.413Z,19.87
2019-05-12T17:04:35.043Z,19.80
2019-05-12T17:09:39.732Z,19.73
2019-05-12T17:14:49.903Z,19.70
2019-05-12T17:19:53.896Z,19.69
2019-05-12T17:24:58.020Z,19.51
2019-05-12T17:30:04.475Z,19.53
2019-05-12T17:35:10.458Z,19.40
2019-05-12T17:40:19.910Z,19.38
2019-05-12T17:45:23.563Z,19.39
2019-05-12T17:50:29.140Z,19.21
2019-05-12T17:55:42.598Z,19.07
2019-05-12T18:00:49.980Z,18.94
2019-05-12T18:05:49.887Z,19.01
2019-05-12T18:10:54.700Z,18.95
2019-05-12T18:15:59.341Z,18.90
2019-05-12T18:21:03.997Z,18.84
2019-05-12T18:26:11.480Z,18.85
2019-05-12T18:31:14.922Z,18.83
2019-05-12T18:36:19.803Z,18.82
2019-05-12T18:41:24.786Z,18.81
2019-05-12T18:46:29.302Z,18.79
2019-05-12T18:51:34.358Z,18.77
2019-05-12T18:56:39.134Z,18.67
2019-05-12T19:01:43.874Z,18.66
2019-05-12T19:06:48.890Z,18.61
2019-05-12T19:11:53.750Z,18.45
2019-05-12T19:16:58.422Z,18.49
2019-05-12T19:22:09.077Z,18.36
2019-05-12T19:27:10.390Z,18.29
2019-05-12T19:32:16.141Z,18.23
2019-05-12T19:37:26.477Z,18.15
2019-05-12T19:42:27.257Z,17.99
2019-05-12T19:47:36.451Z,17.99
2019-05-12T19:52:38.243Z,17.99
2019-05-12T19:57:44.258Z,17.91
2019-05-12T20:02:49.186Z,17.92
2019-05-12T20:07:53.884Z,18.02
2019-05-12T20:12:58.864Z,17.78
2019-05-12T20:18:04.239Z,17.82
2019-05-12T20:23:09.215Z,17.87
2019-05-12T20:28:19.822Z,17.88
2019-05-12T20:33:24.432Z,17.86
2019-05-12T20:38:33.945Z,17.88
2019-05-12T20:43:38.145Z,17.83
2019-05-12T20:48:41.554Z,17.78
2019-05-12T20:53:47.189Z,17.81
2019-05-12T20:58:51.744Z,17.72
2019-05-12T21:03:56.298Z,17.66
2019-05-12T21:09:00.865Z,17.71
2019-05-12T21:14:09.951Z,17.61
2019-05-12T21:19:14.250Z,17.56
2019-05-12T21:24:18.405Z,17.52
2019-05-12T21:29:25.696Z,17.52
2019-05-12T21:34:29.538Z,17.43
2019-05-12T21:39:34.159Z,17.42
2019-05-12T21:44:41.309Z,17.36
2019-05-12T21:49:48.551Z,17.27
2019-05-12T21:54:55.417Z,17.27
2019-05-12T21:59:59.204Z,17.21
2019-05-12T22:05:04.285Z,17.10
2019-05-12T22:10:09.278Z,16.95
2019-05-12T22:15:24.538Z,16.89
2019-05-12T22:20:32.363Z,16.82
2019-05-12T22:25:37.105Z,16.71
2019-05-12T22:30:43.827Z,16.56
2019-05-12T22:36:01.874Z,16.46
2019-05-12T22:40:57.896Z,16.34
2019-05-12T22:46:00.710Z,16.30
2019-05-12T22:51:14.435Z,16.18
2019-05-12T22:56:13.424Z,16.14
2019-05-12T23:01:18.023Z,16.09
2019-05-12T23:06:24.974Z,15.96
2019-05-12T23:11:37.553Z,15.97
2019-05-12T23:16:35.686Z,15.72
2019-05-12T23:21:40.204Z,15.45
2019-05-12T23:26:47.793Z,15.22
2019-05-12T23:31:51.017Z,15.20
2019-05-12T23:36:59.731Z,15.48
2019-05-12T23:42:04.195Z,15.42
2019-05-12T23:47:08.118Z,15.41
2019-05-12T23:52:14.019Z,15.09
2019-05-12T23:57:18.732Z,14.88
